Time;durP1;ratioP1;P1;durP2;ratioP2;P2;SDS_P1;SDS_P2;PMS_P1;PMS_P2;Temp;Humidity;BMP_temperature;BMP_pressure;BME280_temperature;BME280_humidity;BME280_pressure;Samples;Min_cycle;Max_cycle;Signal;HPM_P1;HPM_P2
2023/01/08 00:02:08;;;;;;;13.98;8.90;;;4.80;99.90;;;3.66;100.00;96811.47;5112449;28;20912;-71
2023/01/08 00:04:34;;;;;;;16.13;9.52;;;4.80;99.90;;;3.66;100.00;96806.22;5112951;28;20397;-71
2023/01/08 00:07:00;;;;;;;17.85;8.95;;;4.80;99.90;;;3.62;100.00;96795.38;5112994;28;20396;-71
2023/01/08 00:09:27;;;;;;;15.85;8.73;;;4.80;99.90;;;3.63;100.00;96794.38;5112992;28;20404;-71
2023/01/08 00:11:53;;;;;;;15.27;8.93;;;4.80;99.90;;;3.64;100.00;96776.84;5112335;28;20487;-71
2023/01/08 00:14:18;;;;;;;13.95;8.50;;;4.80;99.90;;;3.61;100.00;96787.78;5112701;28;20538;-71
2023/01/08 00:16:46;;;;;;;14.10;8.77;;;4.80;99.90;;;3.59;100.00;96774.13;5112822;28;20527;-71
2023/01/08 00:19:12;;;;;;;14.60;8.75;;;4.70;99.90;;;3.62;100.00;96773.66;5112931;28;20877;-71
2023/01/08 00:21:38;;;;;;;14.48;8.25;;;4.80;99.90;;;3.67;100.00;96784.28;5112118;28;20418;-70
2023/01/08 00:24:05;;;;;;;15.00;7.93;;;4.80;99.90;;;3.61;100.00;96793.78;5112262;28;20396;-71
2023/01/08 00:26:30;;;;;;;14.57;8.55;;;4.80;99.90;;;3.58;100.00;96793.44;5112597;28;20388;-70
2023/01/08 00:28:56;;;;;;;13.02;8.15;;;4.70;99.90;;;3.60;100.00;96781.75;5112682;28;20762;-70
2023/01/08 00:31:22;;;;;;;16.95;8.75;;;4.80;99.90;;;3.63;100.00;96793.56;5111992;28;20490;-69
2023/01/08 00:33:50;;;;;;;12.87;8.27;;;4.80;99.90;;;3.63;100.00;96781.28;5112306;28;20405;-69
2023/01/08 00:36:18;;;;;;;14.02;8.00;;;4.80;99.90;;;3.64;100.00;96776.84;5112656;28;20594;-69
2023/01/08 00:38:45;;;;;;;13.52;8.27;;;4.80;99.90;;;3.62;100.00;96765.81;5112348;28;20453;-69
2023/01/08 00:41:13;;;;;;;11.77;7.90;;;4.80;99.90;;;3.65;100.00;96757.53;5112460;28;20420;-69
2023/01/08 00:43:39;;;;;;;18.02;10.27;;;4.80;99.90;;;3.65;100.00;96753.09;5112087;28;20558;-69
2023/01/08 00:46:06;;;;;;;13.37;8.20;;;4.80;99.90;;;3.66;100.00;96749.44;5112414;28;20420;-69
2023/01/08 00:48:37;;;;;;;15.60;8.10;;;4.80;99.90;;;3.63;100.00;96736.81;5112437;28;20448;-69
2023/01/08 00:51:06;;;;;;;12.85;8.63;;;4.80;99.90;;;3.64;100.00;96745.44;5112090;28;20915;-69
2023/01/08 00:53:32;;;;;;;14.07;8.77;;;4.80;99.90;;;3.66;100.00;96738.19;5111239;28;20440;-69
2023/01/08 00:56:00;;;;;;;17.42;9.18;;;4.80;99.90;;;3.67;100.00;96745.81;5112261;28;20958;-69
2023/01/08 00:58:26;;;;;;;13.18;8.85;;;4.80;99.90;;;3.70;100.00;96737.50;5112094;28;20408;-69
2023/01/08 01:00:52;;;;;;;14.88;8.55;;;4.90;99.90;;;3.73;100.00;96746.75;5111947;28;20949;-69
2023/01/08 01:03:18;;;;;;;14.97;8.20;;;4.90;99.90;;;3.78;100.00;96739.00;5111230;28;20458;-69
2023/01/08 01:05:43;;;;;;;14.15;8.30;;;4.90;99.90;;;3.80;100.00;96737.78;5112062;28;20463;-70
2023/01/08 01:08:11;;;;;;;13.60;7.90;;;5.00;99.90;;;3.80;100.00;96729.13;5111868;28;20885;-70
2023/01/08 01:10:38;;;;;;;13.43;7.85;;;5.00;99.90;;;3.79;100.00;96725.69;5111846;28;20396;-70
2023/01/08 01:13:04;;;;;;;14.00;8.23;;;4.90;99.90;;;3.74;100.00;96733.44;5110826;28;20408;-69
2023/01/08 01:15:30;;;;;;;12.27;7.97;;;4.90;99.90;;;3.72;100.00;96735.47;5111754;28;20412;-70
2023/01/08 01:17:56;;;;;;;13.68;8.27;;;4.90;99.90;;;3.75;100.00;96729.00;5111822;28;20388;-69
2023/01/08 01:20:22;;;;;;;13.02;8.32;;;4.90;99.90;;;3.71;100.00;96728.63;5111645;28;20890;-69
2023/01/08 01:22:48;;;;;;;14.70;8.80;;;4.90;99.90;;;3.71;100.00;96730.44;5110631;28;20424;-69
2023/01/08 01:25:16;;;;;;;12.77;7.63;;;4.90;99.90;;;3.76;100.00;96741.06;5111628;28;20424;-69
2023/01/08 01:27:42;;;;;;;15.55;8.68;;;4.90;99.90;;;3.78;100.00;96736.38;5111626;28;20447;-69
2023/01/08 01:30:10;;;;;;;14.70;8.70;;;4.90;99.90;;;3.77;100.00;96722.50;5111483;28;20822;-69
2023/01/08 01:32:35;;;;;;;19.00;11.73;;;4.90;99.90;;;3.78;100.00;96712.81;5110817;28;20400;-69
2023/01/08 01:35:02;;;;;;;16.70;10.20;;;5.00;99.90;;;3.84;100.00;96720.56;5111293;28;20388;-70
2023/01/08 01:37:28;;;;;;;14.77;9.15;;;5.00;99.90;;;3.91;100.00;96722.31;5111319;28;20408;-70
2023/01/08 01:39:55;;;;;;;18.50;9.43;;;5.10;99.90;;;3.91;100.00;96738.81;5111356;28;20404;-69
2023/01/08 01:45:24;;;;;;;14.38;8.85;;;5.10;99.90;;;3.98;100.00;96734.28;5101815;28;20484;-69
2023/01/08 01:47:56;;;;;;;15.20;9.13;;;5.10;99.90;;;4.02;100.00;96748.53;5111209;28;20451;-69
2023/01/08 01:50:27;;;;;;;14.13;8.90;;;5.20;99.90;;;4.01;100.00;96746.13;5110977;28;20930;-70
2023/01/08 01:53:00;;;;;;;16.42;9.48;;;5.20;99.90;;;4.01;100.00;96741.69;5110247;28;20443;-69
2023/01/08 01:55:28;;;;;;;14.60;9.33;;;5.20;99.90;;;4.02;100.00;96742.47;5111032;28;20451;-69
2023/01/08 01:58:05;;;;;;;14.20;8.88;;;5.20;99.90;;;3.94;100.00;96742.81;5111227;28;20436;-69
2023/01/08 02:00:33;;;;;;;13.60;8.55;;;5.10;99.90;;;3.95;100.00;96742.59;5111028;28;20440;-69
2023/01/08 02:03:00;;;;;;;14.63;8.75;;;5.10;99.90;;;3.97;100.00;96732.69;5109837;28;20416;-69
2023/01/08 02:05:35;;;;;;;17.98;8.85;;;5.10;99.90;;;3.96;100.00;96722.44;5110850;28;20895;-69
2023/01/08 02:08:09;;;;;;;13.25;8.75;;;5.10;99.90;;;3.99;100.00;96719.34;5109583;28;20424;-70
2023/01/08 02:10:45;;;;;;;15.48;8.82;;;5.10;99.90;;;4.01;100.00;96719.94;5110925;28;20524;-69
2023/01/08 02:13:19;;;;;;;12.88;8.35;;;5.20;99.90;;;4.03;100.00;96720.50;5110144;28;20848;-69
2023/01/08 02:15:53;;;;;;;14.07;8.43;;;5.20;99.90;;;4.08;100.00;96720.63;5110716;28;20463;-69
2023/01/08 02:18:28;;;;;;;14.02;9.10;;;5.20;99.90;;;4.09;100.00;96719.59;5110724;28;20535;-69
2023/01/08 02:21:00;;;;;;;14.27;8.82;;;5.30;99.90;;;4.09;100.00;96707.31;5110093;28;20526;-69
2023/01/08 02:23:35;;;;;;;14.60;8.55;;;5.30;99.90;;;4.16;100.00;96707.19;5109584;28;20542;-69
2023/01/08 02:26:14;;;;;;;14.63;9.35;;;5.30;99.90;;;4.18;100.00;96700.72;5110470;28;20480;-70
2023/01/08 02:28:45;;;;;;;13.68;8.48;;;5.30;99.90;;;4.23;100.00;96694.78;5110583;28;20395;-69
2023/01/08 02:31:13;;;;;;;14.07;8.90;;;5.40;99.90;;;4.22;100.00;96701.03;5110378;28;20454;-69
2023/01/08 02:33:39;;;;;;;15.35;9.25;;;5.30;99.90;;;4.26;100.00;96694.34;5110057;28;20404;-69
2023/01/08 02:36:33;;;;;;;13.45;8.95;;;5.40;99.90;;;4.31;100.00;96683.16;5110361;28;20803;-69
2023/01/08 02:39:20;;;;;;;15.67;9.27;;;5.40;99.90;;;4.33;100.00;96684.53;5110418;28;20511;-69
2023/01/08 02:42:04;;;;;;;13.20;8.77;;;5.50;99.90;;;4.38;100.00;96683.84;5109462;28;20408;-70
2023/01/08 02:44:48;;;;;;;11.13;7.82;;;5.50;99.90;;;4.41;100.00;96671.09;5110065;28;20399;-69
2023/01/08 02:47:29;;;;;;;10.47;7.20;;;5.60;99.90;;;4.49;100.00;96669.97;5110339;28;20479;-70
2023/01/08 02:50:08;;;;;;;14.25;8.57;;;5.60;99.90;;;4.49;100.00;96662.09;5110232;28;20839;-70
2023/01/08 02:52:40;;;;;;;12.15;8.30;;;5.60;99.90;;;4.56;100.00;96658.31;5109477;28;20437;-70
2023/01/08 02:55:08;;;;;;;13.55;7.53;;;5.70;99.90;;;4.50;100.00;96645.34;5110199;28;20475;-70
2023/01/08 02:57:36;;;;;;;12.27;8.45;;;5.60;99.90;;;4.47;100.00;96648.41;5110326;28;20486;-70
2023/01/08 03:00:03;;;;;;;16.85;8.13;;;5.60;99.90;;;4.49;100.00;96641.13;5110080;28;20769;-70
2023/01/08 03:02:33;;;;;;;12.88;8.23;;;5.60;99.90;;;4.50;100.00;96646.16;5109365;28;20523;-70
2023/01/08 03:05:06;;;;;;;12.07;8.00;;;5.60;99.90;;;4.61;100.00;96636.66;5109988;28;20428;-70
2023/01/08 03:07:33;;;;;;;12.27;8.30;;;5.70;99.90;;;4.62;100.00;96638.25;5091756;28;20404;-70
2023/01/08 03:09:59;;;;;;;9.93;7.03;;;5.70;99.90;;;4.65;100.00;96640.41;5110396;28;20392;-70
2023/01/08 03:12:39;;;;;;;11.50;7.95;;;5.80;99.90;;;4.58;100.00;96632.69;5109446;28;20389;-70
2023/01/08 03:15:08;;;;;;;14.88;7.72;;;5.70;99.90;;;4.51;100.00;96633.84;5109929;28;20396;-70
2023/01/08 03:17:38;;;;;;;15.93;7.85;;;5.60;99.90;;;4.51;100.00;96633.84;5110116;28;20392;-70
2023/01/08 03:20:10;;;;;;;12.95;8.63;;;5.60;99.90;;;4.55;100.00;96627.91;5091539;28;20389;-70
2023/01/08 03:22:40;;;;;;;12.00;7.95;;;5.60;99.90;;;4.57;100.00;96630.28;5108975;28;20469;-70
2023/01/08 03:25:08;;;;;;;12.07;7.75;;;5.70;99.90;;;4.59;100.00;96622.97;5109724;28;20869;-70
2023/01/08 03:27:41;;;;;;;10.50;7.30;;;5.70;99.90;;;4.66;100.00;96616.56;5109902;28;20436;-70
2023/01/08 03:30:09;;;;;;;11.43;6.85;;;5.80;99.90;;;4.70;100.00;96614.31;5109890;28;20457;-70
2023/01/08 03:32:38;;;;;;;10.23;7.35;;;5.80;99.90;;;4.76;100.00;96618.59;5109582;28;20396;-70
2023/01/08 03:35:09;;;;;;;13.53;7.10;;;5.80;99.90;;;4.70;100.00;96608.25;5113509;28;20407;-70
2023/01/08 03:37:39;;;;;;;11.15;6.90;;;5.80;99.90;;;4.72;100.00;96612.25;5113858;28;20424;-70
2023/01/08 03:40:12;;;;;;;8.73;6.43;;;5.80;99.90;;;4.71;100.00;96602.78;5113867;28;20438;-70
2023/01/08 03:42:39;;;;;;;11.15;7.32;;;5.80;99.90;;;4.68;100.00;96598.78;5112909;28;20496;-70
2023/01/08 03:45:07;;;;;;;10.13;7.05;;;5.80;99.90;;;4.68;100.00;96595.38;5113559;28;20400;-70
2023/01/08 03:47:34;;;;;;;11.40;7.32;;;5.80;99.90;;;4.67;100.00;96589.34;5113866;28;20467;-70
2023/01/08 03:50:04;;;;;;;10.25;6.88;;;5.80;99.90;;;4.71;100.00;96594.13;5113511;28;20964;-70
2023/01/08 03:52:34;;;;;;;10.68;6.60;;;5.80;99.90;;;4.76;100.00;96605.50;5112702;28;20450;-70
2023/01/08 03:55:00;;;;;;;11.00;7.65;;;5.80;99.90;;;4.70;100.00;96595.94;5113130;28;20802;-71
2023/01/08 03:57:26;;;;;;;9.80;6.80;;;5.80;99.90;;;4.68;100.00;96592.75;5113312;28;20490;-70
2023/01/08 03:59:53;;;;;;;9.30;6.75;;;5.80;99.90;;;4.62;100.00;96597.13;5113433;28;20800;-69
2023/01/08 04:02:19;;;;;;;10.52;6.80;;;5.70;99.90;;;4.62;100.00;96588.44;5112506;28;20408;-70
2023/01/08 04:04:46;;;;;;;10.93;6.88;;;5.70;99.90;;;4.56;100.00;96581.53;5112899;28;20451;-70
2023/01/08 04:07:12;;;;;;;10.38;6.40;;;5.70;99.90;;;4.57;100.00;96583.91;5113281;28;20392;-70
2023/01/08 04:09:38;;;;;;;9.20;6.57;;;5.70;99.90;;;4.55;100.00;96585.97;5113218;28;20908;-70
2023/01/08 04:12:04;;;;;;;9.35;6.55;;;5.70;99.90;;;4.56;100.00;96582.31;5112257;28;20404;-70
2023/01/08 04:14:30;;;;;;;10.35;6.95;;;5.70;99.90;;;4.53;100.00;96574.13;5112822;28;20436;-70
2023/01/08 04:16:57;;;;;;;10.60;7.10;;;5.60;99.90;;;4.61;100.00;96571.94;5113127;28;20455;-70
2023/01/08 04:19:23;;;;;;;12.98;7.15;;;5.70;99.90;;;4.58;100.00;96567.16;5111594;28;20400;-70
2023/01/08 04:21:50;;;;;;;13.02;7.50;;;5.70;99.90;;;4.62;100.00;96578.75;5112241;28;20923;-70
2023/01/08 04:24:16;;;;;;;12.30;7.50;;;5.70;99.90;;;4.66;100.00;96592.97;5112682;28;20424;-70
2023/01/08 04:26:42;;;;;;;10.57;6.93;;;5.80;99.90;;;4.76;100.00;96579.28;5112878;28;20404;-70
2023/01/08 04:29:08;;;;;;;12.33;7.80;;;5.80;99.90;;;4.78;100.00;96587.72;5111541;28;20994;-70
2023/01/08 04:31:34;;;;;;;10.68;7.35;;;5.90;99.90;;;4.88;100.00;96587.13;5112058;28;20512;-70
2023/01/08 04:34:01;;;;;;;12.13;7.00;;;5.90;99.90;;;4.85;100.00;96598.88;5112301;28;20392;-70
2023/01/08 04:36:27;;;;;;;9.35;6.40;;;6.00;99.90;;;4.91;100.00;96597.91;5112344;28;20527;-70
2023/01/08 04:38:53;;;;;;;12.37;6.97;;;6.00;99.90;;;4.96;100.00;96598.00;5112761;28;20897;-70
2023/01/08 04:41:19;;;;;;;10.23;6.90;;;6.00;99.90;;;5.04;100.00;96595.00;5111926;28;20396;-70
2023/01/08 04:43:45;;;;;;;11.07;7.35;;;6.10;99.90;;;5.16;100.00;96602.84;5111890;28;20412;-70
2023/01/08 04:46:11;;;;;;;11.43;7.17;;;6.20;99.90;;;5.30;100.00;96609.38;5112675;28;20783;-70
2023/01/08 04:48:37;;;;;;;12.73;7.43;;;6.30;99.90;;;5.56;100.00;96610.63;5112555;28;20396;-70
2023/01/08 04:51:05;;;;;;;10.45;6.50;;;6.60;99.90;;;5.69;100.00;96615.53;5109946;22;20431;-78
2023/01/08 04:53:35;;;;;;;8.90;6.35;;;6.70;99.90;;;5.66;100.00;96616.00;5030376;28;20395;-80
2023/01/08 04:56:08;;;;;;;7.57;5.73;;;6.70;99.90;;;5.67;100.00;96611.56;5030560;28;20427;-75
2023/01/08 04:58:35;;;;;;;8.48;5.85;;;6.70;99.90;;;5.78;100.00;96608.88;5031695;28;20418;-76
2023/01/08 05:01:09;;;;;;;9.85;5.75;;;6.80;99.90;;;6.10;100.00;96603.81;5031623;28;20761;-76
2023/01/08 05:03:34;;;;;;;8.30;5.70;;;7.00;99.90;;;6.08;100.00;96610.38;5030727;28;20419;-78
2023/01/08 05:06:00;;;;;;;7.00;5.28;;;7.10;99.90;;;6.16;100.00;96607.34;5031642;28;20414;-80
2023/01/08 05:08:28;;;;;;;7.80;5.50;;;7.20;99.90;;;6.12;100.00;96611.47;5031484;28;20411;-80
2023/01/08 05:10:57;;;;;;;8.25;5.05;;;7.10;99.90;;;6.09;100.00;96602.25;5031451;28;20907;-80
2023/01/08 05:13:23;;;;;;;7.75;5.25;;;7.10;99.90;;;6.09;100.00;96610.13;5030558;28;20434;-80
2023/01/08 05:15:48;;;;;;;8.30;5.38;;;7.10;99.90;;;6.12;100.00;96612.28;5031608;28;20480;-82
2023/01/08 05:18:14;;;;;;;8.43;4.72;;;7.10;99.90;;;6.13;100.00;96620.97;5031616;28;20928;-81
2023/01/08 05:20:40;;;;;;;5.30;3.93;;;7.20;99.90;;;6.19;100.00;96620.78;5031471;28;20406;-78
2023/01/08 05:23:06;;;;;;;6.20;4.13;;;7.20;99.90;;;6.15;100.00;96627.56;5030660;28;20415;-80
2023/01/08 05:25:34;;;;;;;6.22;4.00;;;7.20;99.90;;;6.37;100.00;96624.19;5013632;28;20457;-79
2023/01/08 05:27:59;;;;;;;4.95;3.65;;;7.30;99.90;;;6.38;100.00;96610.81;5031364;28;20407;-81
2023/01/08 05:30:25;;;;;;;6.90;3.60;;;7.40;99.90;;;6.45;100.00;96603.53;5031065;28;20417;-80
2023/01/08 05:32:51;;;;;;;5.22;3.40;;;7.50;99.90;;;6.55;100.00;96602.84;5030314;28;20387;-80
2023/01/08 05:35:17;;;;;;;5.05;3.40;;;7.50;99.90;;;6.46;100.00;96591.97;5031080;28;20499;-81
2023/01/08 05:37:43;;;;;;;3.80;2.92;;;7.50;99.90;;;6.40;100.00;96589.50;5031100;28;20406;-78
2023/01/08 05:40:11;;;;;;;5.28;3.05;;;7.40;99.90;;;6.46;100.00;96588.56;5031033;28;20410;-80
2023/01/08 05:42:38;;;;;;;3.22;2.67;;;7.40;99.90;;;6.45;100.00;96598.28;5030255;28;20415;-80
2023/01/08 05:45:06;;;;;;;3.47;2.60;;;7.50;99.90;;;6.51;100.00;96602.56;5030935;28;20407;-79
2023/01/08 05:47:33;;;;;;;3.83;2.70;;;7.50;99.90;;;6.45;100.00;96593.00;5031050;28;20426;-79
2023/01/08 05:50:00;;;;;;;3.40;2.77;;;7.50;99.90;;;6.45;100.00;96593.00;5031073;28;20525;-78
2023/01/08 05:52:26;;;;;;;5.32;3.20;;;7.40;99.90;;;6.61;100.00;96604.53;5029974;28;20976;-80
2023/01/08 05:54:52;;;;;;;4.00;2.58;;;7.50;99.90;;;6.44;100.00;96595.88;5030307;28;20419;-78
2023/01/08 05:57:18;;;;;;;3.60;2.40;;;7.50;99.90;;;6.52;100.00;96596.25;5030722;28;20410;-78
2023/01/08 05:59:45;;;;;;;3.90;2.40;;;7.50;99.90;;;6.50;100.00;96582.56;5030652;28;20411;-78
2023/01/08 06:02:11;;;;;;;4.72;2.40;;;7.50;99.90;;;6.40;100.00;96598.19;5029908;28;20457;-77
2023/01/08 06:04:37;;;;;;;2.42;2.05;;;7.40;99.90;;;6.34;100.00;96601.00;5030416;28;20407;-81
2023/01/08 06:07:03;;;;;;;2.90;2.30;;;7.30;99.90;;;6.36;100.00;96588.41;5030553;28;20395;-80
2023/01/08 06:09:29;;;;;;;3.00;2.20;;;7.30;99.90;;;6.32;100.00;96588.09;5030560;28;20913;-80
2023/01/08 06:11:56;;;;;;;2.67;2.30;;;7.30;99.90;;;6.31;100.00;96588.34;5029726;28;20406;-79
2023/01/08 06:14:22;;;;;;;3.03;2.25;;;7.30;99.90;;;6.38;100.00;96583.72;5030004;28;20414;-80
2023/01/08 06:16:50;;;;;;;3.67;2.30;;;7.40;99.90;;;6.41;100.00;96578.75;5030420;28;20410;-80
2023/01/08 06:19:17;;;;;;;2.15;1.95;;;7.40;99.90;;;6.33;100.00;96583.63;5030388;28;20418;-80
2023/01/08 06:21:44;;;;;;;2.90;2.00;;;7.30;99.90;;;6.25;100.00;96571.72;5029655;28;20422;-79
2023/01/08 06:24:10;;;;;;;2.80;2.22;;;7.30;99.90;;;6.27;100.00;96574.91;5029910;28;20399;-80
2023/01/08 06:26:36;;;;;;;2.42;2.20;;;7.30;99.90;;;6.20;100.00;96571.66;5012459;28;20808;-80
2023/01/08 06:29:02;;;;;;;3.50;2.28;;;7.20;99.90;;;6.14;100.00;96567.38;5012588;28;20501;-78
2023/01/08 06:31:28;;;;;;;4.40;2.22;;;7.20;99.90;;;6.22;100.00;96572.22;5029883;28;20399;-79
2023/01/08 06:33:55;;;;;;;2.80;2.00;;;7.20;99.90;;;6.27;100.00;96566.22;5030090;28;20403;-79
2023/01/08 06:36:21;;;;;;;2.40;2.20;;;7.30;99.90;;;6.27;100.00;96564.38;5030262;28;20415;-80
2023/01/08 06:38:47;;;;;;;2.15;1.85;;;7.30;99.90;;;6.32;100.00;96551.28;5012487;28;20422;-80
2023/01/08 06:41:13;;;;;;;3.10;2.10;;;7.30;99.90;;;6.26;100.00;96549.66;5030131;28;20399;-78
2023/01/08 06:43:39;;;;;;;3.63;2.15;;;7.30;99.90;;;6.32;100.00;96553.13;5036201;28;20415;-79
2023/01/08 06:46:07;;;;;;;2.13;1.92;;;7.30;99.90;;;6.41;100.00;96549.03;5046733;28;20409;-80
2023/01/08 06:48:33;;;;;;;2.60;2.20;;;7.40;99.90;;;6.36;100.00;96560.31;5037654;28;20422;-80
2023/01/08 06:51:02;;;;;;;2.30;2.10;;;7.40;99.90;;;6.34;100.00;96538.72;5035395;28;20410;-80
2023/01/08 06:53:28;;;;;;;1.93;1.70;;;7.30;99.90;;;6.35;100.00;96561.34;5035721;28;20445;-78
2023/01/08 06:55:56;;;;;;;2.20;1.60;;;7.40;99.90;;;6.46;100.00;96570.16;5035518;28;20408;-80
2023/01/08 06:58:22;;;;;;;1.90;1.58;;;7.30;99.90;;;6.40;100.00;96557.97;5030517;28;20438;-80
2023/01/08 07:00:48;;;;;;;2.70;1.90;;;7.40;99.90;;;6.42;100.00;96546.19;5029660;28;20398;-79
2023/01/08 07:03:14;;;;;;;3.17;1.90;;;7.40;99.90;;;6.53;100.00;96555.78;5028798;28;20429;-78
2023/01/08 07:05:40;;;;;;;3.00;1.70;;;7.50;99.90;;;6.66;100.00;96553.81;5029835;28;20517;-80
2023/01/08 07:08:10;;;;;;;3.33;1.90;;;7.60;99.90;;;6.54;100.00;96548.69;5014830;28;20604;-80
2023/01/08 07:10:36;;;;;;;1.85;1.67;;;7.50;99.90;;;6.52;100.00;96556.03;5016068;28;20785;-80
2023/01/08 07:13:02;;;;;;;1.60;1.50;;;7.50;99.90;;;6.56;100.00;96555.28;5032784;28;20407;-78
2023/01/08 07:15:28;;;;;;;2.58;1.80;;;7.50;99.90;;;6.60;100.00;96545.06;5033819;28;20434;-78
2023/01/08 07:17:54;;;;;;;2.05;1.70;;;7.60;99.90;;;6.60;100.00;96548.50;5033745;28;20628;-79
2023/01/08 07:20:20;;;;;;;2.45;1.88;;;7.60;99.90;;;6.61;100.00;96557.19;5033899;28;20828;-76
2023/01/08 07:22:46;;;;;;;2.13;1.70;;;7.60;99.90;;;6.63;100.00;96549.81;5031575;28;20498;-80
2023/01/08 07:25:13;;;;;;;1.60;1.50;;;7.60;99.90;;;6.64;100.00;96556.69;5041531;28;20409;-78
2023/01/08 07:27:39;;;;;;;1.80;1.70;;;7.60;99.90;;;6.59;100.00;96560.06;5035542;28;20405;-77
2023/01/08 07:30:07;;;;;;;2.80;1.90;;;7.60;99.90;;;6.54;100.00;96553.94;5046586;28;20497;-79
2023/01/08 07:32:33;;;;;;;2.45;1.75;;;7.60;99.90;;;6.48;100.00;96562.78;5032705;28;20784;-76
2023/01/08 07:34:59;;;;;;;1.98;1.77;;;7.50;99.90;;;6.51;100.00;96573.63;5015310;28;20437;-76
2023/01/08 07:37:25;;;;;;;5.20;2.28;;;7.50;99.90;;;6.43;100.00;96568.81;5032993;28;20493;-77
2023/01/08 07:39:52;;;;;;;3.78;1.77;;;7.50;99.90;;;6.40;100.00;96564.00;5032735;28;20437;-76
2023/01/08 07:42:19;;;;;;;3.03;2.25;;;7.40;99.90;;;6.41;100.00;96567.44;5031965;28;20418;-76
2023/01/08 07:44:45;;;;;;;2.65;1.80;;;7.40;99.90;;;6.38;100.00;96571.38;5030986;28;20414;-75
2023/01/08 07:47:11;;;;;;;2.20;1.80;;;7.40;99.90;;;6.28;100.00;96562.56;5033326;28;20411;-75
2023/01/08 07:49:37;;;;;;;2.78;1.83;;;7.30;99.90;;;6.19;100.00;96570.84;5032969;28;20407;-76
2023/01/08 07:52:03;;;;;;;2.85;2.00;;;7.20;99.90;;;6.27;100.00;96567.00;5028339;28;20501;-80
2023/01/08 07:54:29;;;;;;;3.22;2.08;;;7.30;99.90;;;6.23;100.00;96573.81;5038127;28;20415;-80
2023/01/08 07:56:55;;;;;;;2.20;1.88;;;7.30;99.90;;;6.27;100.00;96566.22;5029903;28;20426;-77
2023/01/08 07:59:22;;;;;;;3.05;1.90;;;7.30;99.90;;;6.21;100.00;96566.16;5040430;28;20541;-79
2023/01/08 08:01:48;;;;;;;3.05;2.00;;;7.20;99.90;;;6.21;100.00;96565.38;5021324;28;20979;-76
2023/01/08 08:04:14;;;;;;;2.33;1.85;;;7.30;99.90;;;6.19;100.00;96570.84;5026200;28;20421;-78
2023/01/08 08:06:40;;;;;;;2.10;1.90;;;7.20;99.90;;;6.18;100.00;96558.75;5026950;28;20533;-79
2023/01/08 08:09:07;;;;;;;3.30;1.80;;;7.20;99.90;;;6.26;100.00;96559.38;5006944;28;20444;-78
2023/01/08 08:11:32;;;;;;;1.92;1.73;;;7.30;99.90;;;6.17;100.00;96559.00;5024167;28;20448;-77
2023/01/08 08:13:58;;;;;;;2.23;1.80;;;7.20;99.90;;;6.19;100.00;96562.19;5023858;28;20494;-76
2023/01/08 08:16:26;;;;;;;2.10;1.90;;;7.20;99.90;;;6.25;100.00;96560.41;5030447;28;20690;-77
2023/01/08 08:18:52;;;;;;;2.93;1.90;;;7.20;99.90;;;6.20;100.00;96561.16;5027200;28;20409;-77
2023/01/08 08:21:17;;;;;;;2.75;2.00;;;7.20;99.90;;;6.24;100.00;96564.09;5029459;28;20407;-76
2023/01/08 08:23:43;;;;;;;3.03;1.98;;;7.30;99.90;;;6.34;100.00;96551.84;5031567;28;20433;-78
2023/01/08 08:26:09;;;;;;;2.53;1.75;;;7.30;99.90;;;6.34;100.00;96561.56;5016033;28;20415;-80
2023/01/08 08:28:35;;;;;;;3.45;2.00;;;7.30;99.90;;;6.24;100.00;96559.59;5034444;28;20413;-87
2023/01/08 08:31:03;;;;;;;1.92;1.75;;;7.30;99.90;;;6.29;100.00;96551.00;5040113;28;20474;-86
2023/01/08 08:33:30;;;;;;;2.50;2.00;;;7.30;99.90;;;6.21;100.00;96544.34;5034105;28;20410;-76
2023/01/08 08:35:56;;;;;;;3.00;1.80;;;7.30;99.90;;;6.24;100.00;96549.09;5014523;28;20422;-76
2023/01/08 08:38:23;;;;;;;1.95;1.80;;;7.30;99.90;;;6.18;100.00;96550.06;5032214;28;20407;-77
2023/01/08 08:40:49;;;;;;;2.60;2.15;;;7.20;99.90;;;6.17;100.00;96545.84;5032086;28;20407;-77
2023/01/08 08:43:15;;;;;;;3.92;2.00;;;7.20;99.90;;;6.30;100.00;96545.50;5031221;28;20423;-78
2023/01/08 08:45:41;;;;;;;2.20;2.00;;;7.30;99.90;;;6.18;100.00;96548.25;5032148;28;20410;-77
2023/01/08 08:48:08;;;;;;;2.90;1.85;;;7.20;99.90;;;6.16;100.00;96542.44;5032079;28;20888;-77
2023/01/08 08:50:35;;;;;;;2.67;1.90;;;7.20;99.90;;;6.17;100.00;96538.75;5031967;28;20407;-77
2023/01/08 08:53:03;;;;;;;3.63;2.22;;;7.20;99.90;;;6.15;100.00;96540.88;5030789;28;20942;-77
2023/01/08 08:55:29;;;;;;;3.17;1.92;;;7.20;99.90;;;6.17;100.00;96538.75;5031550;28;20400;-78
2023/01/08 08:58:03;;;;;;;2.17;1.98;;;7.20;99.90;;;6.17;100.00;96535.34;5031300;28;20907;-76
2023/01/08 09:00:29;;;;;;;4.15;1.90;;;7.20;99.90;;;6.21;100.00;96539.09;5030641;28;20950;-77
2023/01/08 09:02:55;;;;;;;2.95;1.85;;;7.20;99.90;;;6.32;100.00;96524.22;5011418;28;20832;-79
2023/01/08 09:05:21;;;;;;;3.20;2.10;;;7.30;99.90;;;6.28;100.00;96520.50;5010530;28;20543;-76
2023/01/08 09:07:48;;;;;;;3.30;2.07;;;7.30;99.90;;;6.47;100.00;96534.91;5046508;28;20405;-76
2023/01/08 09:10:15;;;;;;;4.18;2.10;;;7.40;99.90;;;6.36;100.00;96535.84;5031289;28;20414;-76
2023/01/08 09:12:40;;;;;;;3.50;2.10;;;7.40;99.90;;;6.32;100.00;96530.28;5030384;28;20486;-77
2023/01/08 09:15:08;;;;;;;9.32;2.38;;;7.30;99.90;;;6.26;100.00;96526.00;5029909;28;20729;-75
2023/01/08 09:17:35;;;;;;;3.65;1.90;;;7.30;99.90;;;6.30;100.00;96523.69;5031063;28;20423;-76
2023/01/08 09:20:01;;;;;;;2.17;1.98;;;7.30;99.90;;;6.31;100.00;96528.72;5031062;28;20407;-75
2023/01/08 09:22:27;;;;;;;2.63;1.85;;;7.30;99.90;;;6.42;100.00;96527.78;5024090;28;20411;-76
2023/01/08 09:24:55;;;;;;;2.78;1.88;;;7.40;99.90;;;6.36;100.00;96535.84;5029326;28;20495;-77
2023/01/08 09:27:20;;;;;;;2.77;1.90;;;7.40;99.90;;;6.45;100.00;96535.19;5030814;28;20553;-76
2023/01/08 09:29:46;;;;;;;3.70;1.73;;;7.50;99.90;;;6.42;100.00;96538.28;5031621;28;20426;-75
2023/01/08 09:32:12;;;;;;;4.55;2.00;;;7.40;99.90;;;6.41;100.00;96536.69;5039901;28;20410;-77
2023/01/08 09:34:38;;;;;;;1.70;1.60;;;7.40;99.90;;;6.51;100.00;96522.88;5030317;28;20886;-77
2023/01/08 09:37:05;;;;;;;2.97;1.80;;;7.50;99.90;;;6.51;100.00;96522.88;5030756;28;20499;-76
2023/01/08 09:39:31;;;;;;;1.97;1.70;;;7.50;99.90;;;6.47;100.00;96532.28;5030783;28;20414;-76
2023/01/08 09:42:02;;;;;;;2.53;1.90;;;7.50;99.90;;;6.55;100.00;96532.66;5029579;28;20508;-76
2023/01/08 09:44:34;;;;;;;2.10;1.85;;;7.50;99.90;;;6.58;100.00;96524.28;5030284;28;20406;-76
2023/01/08 09:47:01;;;;;;;2.10;1.80;;;7.60;99.90;;;6.51;100.00;96536.03;5030922;28;20411;-77
2023/01/08 09:49:38;;;;;;;2.35;1.90;;;7.50;99.90;;;6.48;100.00;96533.88;5013009;28;20411;-76
2023/01/08 09:52:04;;;;;;;3.15;1.90;;;7.50;99.90;;;6.59;100.00;96531.13;5029876;28;20395;-76
2023/01/08 09:54:31;;;;;;;1.75;1.60;;;7.60;99.90;;;6.58;100.00;96526.13;5030159;28;20969;-75
2023/01/08 09:56:59;;;;;;;2.33;1.65;;;7.60;99.90;;;6.57;100.00;96530.56;5030962;28;20410;-76
2023/01/08 09:59:26;;;;;;;2.60;1.70;;;7.60;99.90;;;6.57;100.00;96535.03;5030406;28;20947;-76
2023/01/08 10:01:52;;;;;;;1.70;1.60;;;7.60;99.90;;;6.58;100.00;96534.81;5029526;28;20448;-76
2023/01/08 10:04:21;;;;;;;2.67;1.85;;;7.60;99.90;;;6.67;100.00;96543.06;5030217;28;20399;-77
2023/01/08 10:06:52;;;;;;;3.15;1.92;;;7.60;99.90;;;6.68;100.00;96543.84;5030497;28;20403;-77
2023/01/08 10:09:24;;;;;;;2.42;1.80;;;7.70;99.90;;;6.82;100.00;96545.84;5034557;28;20760;-77
2023/01/08 10:11:53;;;;;;;3.03;1.70;;;7.80;99.90;;;6.83;100.00;96544.81;5030710;28;20445;-76
2023/01/08 10:14:25;;;;;;;3.20;1.90;;;7.80;99.90;;;6.86;100.00;96539.03;5039393;28;20395;-77
2023/01/08 10:16:57;;;;;;;1.90;1.70;;;7.90;99.90;;;6.88;100.00;96536.97;5046523;28;20540;-76
2023/01/08 10:19:23;;;;;;;2.45;1.83;;;7.90;99.90;;;6.82;100.00;96530.06;5026611;28;20773;-75
2023/01/08 10:21:50;;;;;;;6.53;2.15;;;7.80;99.90;;;6.87;100.00;96534.56;5028983;28;20413;-75
2023/01/08 10:24:18;;;;;;;2.33;1.73;;;7.90;99.90;;;6.91;100.00;96535.69;5009378;28;20738;-75
2023/01/08 10:26:44;;;;;;;3.63;1.80;;;7.90;99.90;;;7.03;100.00;96528.41;5029400;28;20415;-75
2023/01/08 10:29:13;;;;;;;3.17;1.85;;;8.00;99.90;;;7.04;100.00;96526.59;5029628;28;20972;-75